sensor_id;sensor_type;location;lat;lon;timestamp;temperature;humidity
10536;DHT22;5316;49.538;8.352;2023-03-01T00:00:47;0.60;99.90
10536;DHT22;5316;49.538;8.352;2023-03-01T01:36:22;-0.20;99.90
10536;DHT22;5316;49.538;8.352;2023-03-01T01:38:50;-0.20;99.90
10536;DHT22;5316;49.538;8.352;2023-03-01T01:41:20;-0.20;99.90
10536;DHT22;5316;49.538;8.352;2023-03-01T01:46:33;-0.20;99.90
10536;DHT22;5316;49.538;8.352;2023-03-01T01:49:03;-0.20;99.90
10536;DHT22;5316;49.538;8.352;2023-03-01T01:51:37;-0.10;99.90
10536;DHT22;5316;49.538;8.352;2023-03-01T01:54:11;-0.20;99.90
10536;DHT22;5316;49.538;8.352;2023-03-01T01:56:44;-0.20;99.90
10536;DHT22;5316;49.538;8.352;2023-03-01T01:59:14;-0.20;1.00
10536;DHT22;5316;49.538;8.352;2023-03-01T02:01:41;-0.20;1.00
10536;DHT22;5316;49.538;8.352;2023-03-01T02:04:09;-0.30;1.00
10536;DHT22;5316;49.538;8.352;2023-03-01T02:06:41;-0.30;3.60
10536;DHT22;5316;49.538;8.352;2023-03-01T02:09:13;-0.30;1.00
10536;DHT22;5316;49.538;8.352;2023-03-01T02:11:42;-0.40;27.20
10536;DHT22;5316;49.538;8.352;2023-03-01T02:14:10;-0.30;77.90
10536;DHT22;5316;49.538;8.352;2023-03-01T02:16:37;-0.40;99.90
10536;DHT22;5316;49.538;8.352;2023-03-01T02:19:05;-0.30;99.90
10536;DHT22;5316;49.538;8.352;2023-03-01T02:21:42;-0.30;99.90
10536;DHT22;5316;49.538;8.352;2023-03-01T02:24:21;-0.30;99.90
10536;DHT22;5316;49.538;8.352;2023-03-01T02:26:54;-0.30;83.70
10536;DHT22;5316;49.538;8.352;2023-03-01T02:29:24;-0.30;99.90
10536;DHT22;5316;49.538;8.352;2023-03-01T02:31:52;-0.30;99.90
10536;DHT22;5316;49.538;8.352;2023-03-01T02:34:24;-0.30;99.90
10536;DHT22;5316;49.538;8.352;2023-03-01T02:36:57;-0.30;99.90
10536;DHT22;5316;49.538;8.352;2023-03-01T04:44:25;-0.30;1.00
10536;DHT22;5316;49.538;8.352;2023-03-01T04:46:51;-0.30;1.00
10536;DHT22;5316;49.538;8.352;2023-03-01T04:49:18;-0.30;1.00
10536;DHT22;5316;49.538;8.352;2023-03-01T04:51:45;-0.30;1.00
10536;DHT22;5316;49.538;8.352;2023-03-01T04:54:11;-0.30;1.00
10536;DHT22;5316;49.538;8.352;2023-03-01T04:56:38;-0.30;1.00
10536;DHT22;5316;49.538;8.352;2023-03-01T04:59:05;-0.30;1.00
10536;DHT22;5316;49.538;8.352;2023-03-01T05:01:35;-0.30;1.00
10536;DHT22;5316;49.538;8.352;2023-03-01T05:04:02;-0.30;1.00
10536;DHT22;5316;49.538;8.352;2023-03-01T05:06:31;-0.30;1.00
10536;DHT22;5316;49.538;8.352;2023-03-01T05:08:58;-0.30;1.00
10536;DHT22;5316;49.538;8.352;2023-03-01T05:11:25;-0.20;99.90
10536;DHT22;5316;49.538;8.352;2023-03-01T05:13:53;-0.30;99.90
10536;DHT22;5316;49.538;8.352;2023-03-01T05:16:20;-0.20;71.80
10536;DHT22;5316;49.538;8.352;2023-03-01T05:18:49;-0.20;7.10
10536;DHT22;5316;49.538;8.352;2023-03-01T05:21:17;-0.20;1.00
10536;DHT22;5316;49.538;8.352;2023-03-01T05:23:44;-0.20;1.00
10536;DHT22;5316;49.538;8.352;2023-03-01T05:26:12;-0.20;5.50
10536;DHT22;5316;49.538;8.352;2023-03-01T05:28:39;-0.20;32.00
10536;DHT22;5316;49.538;8.352;2023-03-01T05:31:07;-0.20;6.00
10536;DHT22;5316;49.538;8.352;2023-03-01T05:33:35;-0.20;5.50
10536;DHT22;5316;49.538;8.352;2023-03-01T05:36:04;-0.10;81.70
10536;DHT22;5316;49.538;8.352;2023-03-01T05:38:31;-0.10;99.90
10536;DHT22;5316;49.538;8.352;2023-03-01T05:40:58;-0.10;99.90
10536;DHT22;5316;49.538;8.352;2023-03-01T05:43:25;-0.10;7.70
10536;DHT22;5316;49.538;8.352;2023-03-01T05:45:52;-0.10;7.20
10536;DHT22;5316;49.538;8.352;2023-03-01T05:48:19;-0.10;1.00
10536;DHT22;5316;49.538;8.352;2023-03-01T05:50:46;-0.10;1.00
10536;DHT22;5316;49.538;8.352;2023-03-01T05:53:16;0.00;1.00
10536;DHT22;5316;49.538;8.352;2023-03-01T05:55:44;0.00;1.00
10536;DHT22;5316;49.538;8.352;2023-03-01T05:58:14;0.00;1.00
10536;DHT22;5316;49.538;8.352;2023-03-01T06:00:41;0.00;1.00
10536;DHT22;5316;49.538;8.352;2023-03-01T06:03:10;0.00;99.90
10536;DHT22;5316;49.538;8.352;2023-03-01T06:05:37;0.00;99.90
10536;DHT22;5316;49.538;8.352;2023-03-01T06:08:05;0.00;1.00
10536;DHT22;5316;49.538;8.352;2023-03-01T06:10:33;0.00;1.00
10536;DHT22;5316;49.538;8.352;2023-03-01T06:13:00;0.00;1.00
10536;DHT22;5316;49.538;8.352;2023-03-01T06:15:27;0.00;1.00
10536;DHT22;5316;49.538;8.352;2023-03-01T06:17:55;0.00;1.00
10536;DHT22;5316;49.538;8.352;2023-03-01T06:20:24;0.10;99.90
10536;DHT22;5316;49.538;8.352;2023-03-01T06:22:51;0.10;99.90
10536;DHT22;5316;49.538;8.352;2023-03-01T06:25:20;0.10;99.90
10536;DHT22;5316;49.538;8.352;2023-03-01T06:27:49;0.10;99.90
10536;DHT22;5316;49.538;8.352;2023-03-01T06:30:19;0.20;99.90
10536;DHT22;5316;49.538;8.352;2023-03-01T06:32:47;0.20;99.90
10536;DHT22;5316;49.538;8.352;2023-03-01T06:35:15;0.30;99.90
10536;DHT22;5316;49.538;8.352;2023-03-01T06:37:44;0.30;99.90
10536;DHT22;5316;49.538;8.352;2023-03-01T06:40:12;0.30;99.90
10536;DHT22;5316;49.538;8.352;2023-03-01T06:42:40;0.40;99.90
10536;DHT22;5316;49.538;8.352;2023-03-01T06:45:10;0.40;99.90
10536;DHT22;5316;49.538;8.352;2023-03-01T06:47:37;0.50;99.90
10536;DHT22;5316;49.538;8.352;2023-03-01T06:50:04;0.50;99.90
10536;DHT22;5316;49.538;8.352;2023-03-01T06:52:32;0.50;24.10
10536;DHT22;5316;49.538;8.352;2023-03-01T06:54:59;0.60;1.00
10536;DHT22;5316;49.538;8.352;2023-03-01T06:57:27;0.70;1.00
10536;DHT22;5316;49.538;8.352;2023-03-01T06:59:54;0.80;99.90
10536;DHT22;5316;49.538;8.352;2023-03-01T07:02:22;0.80;99.90
10536;DHT22;5316;49.538;8.352;2023-03-01T07:04:49;0.90;96.50
10536;DHT22;5316;49.538;8.352;2023-03-01T07:07:16;0.90;24.80
10536;DHT22;5316;49.538;8.352;2023-03-01T07:09:44;1.00;1.00
10536;DHT22;5316;49.538;8.352;2023-03-01T07:12:11;1.10;1.00
10536;DHT22;5316;49.538;8.352;2023-03-01T07:14:37;1.20;99.90
10536;DHT22;5316;49.538;8.352;2023-03-01T07:17:04;1.30;99.90
10536;DHT22;5316;49.538;8.352;2023-03-01T07:19:35;1.30;1.00
10536;DHT22;5316;49.538;8.352;2023-03-01T07:22:03;1.40;1.00
10536;DHT22;5316;49.538;8.352;2023-03-01T07:24:33;1.50;99.90
10536;DHT22;5316;49.538;8.352;2023-03-01T07:26:59;1.50;99.90
10536;DHT22;5316;49.538;8.352;2023-03-01T07:29:26;1.60;99.90
10536;DHT22;5316;49.538;8.352;2023-03-01T07:31:54;1.60;99.90
10536;DHT22;5316;49.538;8.352;2023-03-01T07:34:21;1.70;99.90
10536;DHT22;5316;49.538;8.352;2023-03-01T07:36:49;1.70;39.90
10536;DHT22;5316;49.538;8.352;2023-03-01T07:39:16;1.70;90.20
10536;DHT22;5316;49.538;8.352;2023-03-01T07:41:43;1.70;44.70
10536;DHT22;5316;49.538;8.352;2023-03-01T07:44:09;1.80;86.20
10536;DHT22;5316;49.538;8.352;2023-03-01T07:46:36;1.90;1.00
10536;DHT22;5316;49.538;8.352;2023-03-01T07:49:03;1.80;99.90
10536;DHT22;5316;49.538;8.352;2023-03-01T07:51:30;2.00;99.90
10536;DHT22;5316;49.538;8.352;2023-03-01T07:53:59;2.00;99.90
10536;DHT22;5316;49.538;8.352;2023-03-01T07:56:26;2.10;99.90
10536;DHT22;5316;49.538;8.352;2023-03-01T07:58:53;2.10;95.70
10536;DHT22;5316;49.538;8.352;2023-03-01T08:01:21;2.10;1.00
10536;DHT22;5316;49.538;8.352;2023-03-01T08:03:49;2.20;1.00
10536;DHT22;5316;49.538;8.352;2023-03-01T08:06:17;2.20;1.00
10536;DHT22;5316;49.538;8.352;2023-03-01T08:08:44;2.20;1.00
10536;DHT22;5316;49.538;8.352;2023-03-01T08:11:14;2.20;13.40
10536;DHT22;5316;49.538;8.352;2023-03-01T08:13:41;2.20;46.40
10536;DHT22;5316;49.538;8.352;2023-03-01T08:16:11;2.20;99.90
10536;DHT22;5316;49.538;8.352;2023-03-01T08:18:38;2.30;48.20
10536;DHT22;5316;49.538;8.352;2023-03-01T08:21:07;2.30;1.00
10536;DHT22;5316;49.538;8.352;2023-03-01T08:23:34;2.30;1.00
10536;DHT22;5316;49.538;8.352;2023-03-01T08:26:06;2.40;1.00
10536;DHT22;5316;49.538;8.352;2023-03-01T08:28:35;2.40;1.00
10536;DHT22;5316;49.538;8.352;2023-03-01T08:31:02;2.40;1.00
10536;DHT22;5316;49.538;8.352;2023-03-01T08:33:29;2.40;1.00
10536;DHT22;5316;49.538;8.352;2023-03-01T08:36:03;2.40;1.00
10536;DHT22;5316;49.538;8.352;2023-03-01T08:38:32;2.50;1.00
10536;DHT22;5316;49.538;8.352;2023-03-01T08:41:00;2.60;1.00
10536;DHT22;5316;49.538;8.352;2023-03-01T08:43:27;2.60;1.00
10536;DHT22;5316;49.538;8.352;2023-03-01T08:45:55;2.70;1.00
10536;DHT22;5316;49.538;8.352;2023-03-01T08:48:22;2.70;1.00
10536;DHT22;5316;49.538;8.352;2023-03-01T08:50:49;2.70;1.00
10536;DHT22;5316;49.538;8.352;2023-03-01T08:53:16;2.80;1.00
10536;DHT22;5316;49.538;8.352;2023-03-01T08:55:42;2.80;99.90
10536;DHT22;5316;49.538;8.352;2023-03-01T08:58:09;2.90;99.90
10536;DHT22;5316;49.538;8.352;2023-03-01T09:00:37;2.90;99.90
10536;DHT22;5316;49.538;8.352;2023-03-01T09:03:05;2.90;99.90
10536;DHT22;5316;49.538;8.352;2023-03-01T09:05:33;2.90;99.90
10536;DHT22;5316;49.538;8.352;2023-03-01T09:08:03;3.00;99.90
10536;DHT22;5316;49.538;8.352;2023-03-01T09:10:31;3.00;99.90
10536;DHT22;5316;49.538;8.352;2023-03-01T09:12:57;3.00;99.90
10536;DHT22;5316;49.538;8.352;2023-03-01T09:15:24;3.10;99.90
10536;DHT22;5316;49.538;8.352;2023-03-01T09:17:51;3.10;99.90
10536;DHT22;5316;49.538;8.352;2023-03-01T09:20:19;3.10;99.90
10536;DHT22;5316;49.538;8.352;2023-03-01T09:22:46;3.10;99.90
10536;DHT22;5316;49.538;8.352;2023-03-01T09:25:14;3.20;99.90
10536;DHT22;5316;49.538;8.352;2023-03-01T09:27:41;3.20;99.90
10536;DHT22;5316;49.538;8.352;2023-03-01T09:30:08;3.30;99.90
10536;DHT22;5316;49.538;8.352;2023-03-01T09:32:35;3.30;99.90
10536;DHT22;5316;49.538;8.352;2023-03-01T09:35:03;3.30;99.90
10536;DHT22;5316;49.538;8.352;2023-03-01T09:37:34;3.40;99.80
10536;DHT22;5316;49.538;8.352;2023-03-01T09:40:04;3.40;62.30
10536;DHT22;5316;49.538;8.352;2023-03-01T09:42:33;3.50;1.00
10536;DHT22;5316;49.538;8.352;2023-03-01T09:45:03;3.50;1.40
10536;DHT22;5316;49.538;8.352;2023-03-01T09:47:33;3.60;2.90
10536;DHT22;5316;49.538;8.352;2023-03-01T09:50:04;3.60;1.00
10536;DHT22;5316;49.538;8.352;2023-03-01T09:52:39;3.70;1.00
10536;DHT22;5316;49.538;8.352;2023-03-01T09:55:10;3.70;1.00
10536;DHT22;5316;49.538;8.352;2023-03-01T09:57:43;3.70;1.00
10536;DHT22;5316;49.538;8.352;2023-03-01T10:00:18;3.80;1.00
10536;DHT22;5316;49.538;8.352;2023-03-01T10:02:49;3.80;1.00
10536;DHT22;5316;49.538;8.352;2023-03-01T10:05:50;3.90;1.00
10536;DHT22;5316;49.538;8.352;2023-03-01T10:08:34;3.90;1.00
10536;DHT22;5316;49.538;8.352;2023-03-01T10:11:05;3.90;1.00
10536;DHT22;5316;49.538;8.352;2023-03-01T10:13:45;4.00;1.00
10536;DHT22;5316;49.538;8.352;2023-03-01T10:16:16;4.00;1.00
10536;DHT22;5316;49.538;8.352;2023-03-01T10:18:48;4.10;1.00
10536;DHT22;5316;49.538;8.352;2023-03-01T10:21:19;4.20;1.00
10536;DHT22;5316;49.538;8.352;2023-03-01T10:23:50;4.30;1.00
10536;DHT22;5316;49.538;8.352;2023-03-01T10:26:32;4.40;1.00
10536;DHT22;5316;49.538;8.352;2023-03-01T10:29:06;4.50;1.00
10536;DHT22;5316;49.538;8.352;2023-03-01T10:31:39;4.60;99.90
10536;DHT22;5316;49.538;8.352;2023-03-01T10:34:11;4.70;99.90
10536;DHT22;5316;49.538;8.352;2023-03-01T10:36:39;4.80;99.90
10536;DHT22;5316;49.538;8.352;2023-03-01T10:39:13;4.80;99.90
10536;DHT22;5316;49.538;8.352;2023-03-01T10:42:00;4.90;99.90
10536;DHT22;5316;49.538;8.352;2023-03-01T10:49:36;5.10;99.90
10536;DHT22;5316;49.538;8.352;2023-03-01T10:52:17;5.20;99.90
10536;DHT22;5316;49.538;8.352;2023-03-01T10:54:58;5.30;99.90
10536;DHT22;5316;49.538;8.352;2023-03-01T10:57:36;5.40;99.90
10536;DHT22;5316;49.538;8.352;2023-03-01T11:00:26;5.50;99.90
10536;DHT22;5316;49.538;8.352;2023-03-01T11:03:12;5.60;99.90
10536;DHT22;5316;49.538;8.352;2023-03-01T11:05:58;5.60;99.90
10536;DHT22;5316;49.538;8.352;2023-03-01T11:08:37;5.70;99.90
10536;DHT22;5316;49.538;8.352;2023-03-01T11:11:29;5.70;99.90
10536;DHT22;5316;49.538;8.352;2023-03-01T11:14:02;5.80;99.90
10536;DHT22;5316;49.538;8.352;2023-03-01T11:16:33;5.80;99.90
10536;DHT22;5316;49.538;8.352;2023-03-01T11:19:18;5.90;99.90
10536;DHT22;5316;49.538;8.352;2023-03-01T11:21:59;5.90;99.90
10536;DHT22;5316;49.538;8.352;2023-03-01T11:24:33;6.00;99.90
10536;DHT22;5316;49.538;8.352;2023-03-01T11:27:20;6.20;99.90
10536;DHT22;5316;49.538;8.352;2023-03-01T11:29:55;6.30;97.70
10536;DHT22;5316;49.538;8.352;2023-03-01T11:32:28;6.30;90.20
10536;DHT22;5316;49.538;8.352;2023-03-01T11:35:05;6.30;71.70
10536;DHT22;5316;49.538;8.352;2023-03-01T11:37:41;6.30;76.90
10536;DHT22;5316;49.538;8.352;2023-03-01T11:40:21;6.30;85.50
10536;DHT22;5316;49.538;8.352;2023-03-01T11:43:20;6.50;84.70
10536;DHT22;5316;49.538;8.352;2023-03-01T11:46:02;6.50;55.90
10536;DHT22;5316;49.538;8.352;2023-03-01T11:48:44;6.50;60.50
10536;DHT22;5316;49.538;8.352;2023-03-01T11:51:21;6.50;51.70
10536;DHT22;5316;49.538;8.352;2023-03-01T11:54:09;6.50;43.60
10536;DHT22;5316;49.538;8.352;2023-03-01T11:56:43;6.50;54.00
10536;DHT22;5316;49.538;8.352;2023-03-01T11:59:25;6.60;55.70
10536;DHT22;5316;49.538;8.352;2023-03-01T12:02:12;6.70;32.90
10536;DHT22;5316;49.538;8.352;2023-03-01T12:05:02;6.80;21.80
10536;DHT22;5316;49.538;8.352;2023-03-01T12:07:37;6.80;21.60
10536;DHT22;5316;49.538;8.352;2023-03-01T12:10:22;6.80;22.00
10536;DHT22;5316;49.538;8.352;2023-03-01T12:13:03;6.80;21.80
10536;DHT22;5316;49.538;8.352;2023-03-01T12:15:50;6.80;29.70
10536;DHT22;5316;49.538;8.352;2023-03-01T12:18:27;6.90;26.90
10536;DHT22;5316;49.538;8.352;2023-03-01T12:21:06;7.00;16.10
10536;DHT22;5316;49.538;8.352;2023-03-01T12:26:40;7.10;11.50
10536;DHT22;5316;49.538;8.352;2023-03-01T12:29:19;7.10;7.10
10536;DHT22;5316;49.538;8.352;2023-03-01T13:05:46;8.00;1.00
10536;DHT22;5316;49.538;8.352;2023-03-01T13:12:04;8.20;1.00
10536;DHT22;5316;49.538;8.352;2023-03-01T13:14:58;8.30;1.00
10536;DHT22;5316;49.538;8.352;2023-03-01T13:17:53;8.40;1.00
10536;DHT22;5316;49.538;8.352;2023-03-01T13:38:37;9.50;1.00
10536;DHT22;5316;49.538;8.352;2023-03-01T13:41:05;9.70;1.00
10536;DHT22;5316;49.538;8.352;2023-03-01T13:43:34;9.80;1.00
10536;DHT22;5316;49.538;8.352;2023-03-01T13:46:07;9.90;1.00
10536;DHT22;5316;49.538;8.352;2023-03-01T13:48:34;10.10;1.00
10536;DHT22;5316;49.538;8.352;2023-03-01T13:51:03;10.30;1.00
10536;DHT22;5316;49.538;8.352;2023-03-01T13:53:34;10.40;1.00
10536;DHT22;5316;49.538;8.352;2023-03-01T13:56:07;10.50;1.00
10536;DHT22;5316;49.538;8.352;2023-03-01T13:58:46;10.70;1.00
10536;DHT22;5316;49.538;8.352;2023-03-01T14:01:23;10.70;1.00
10536;DHT22;5316;49.538;8.352;2023-03-01T14:03:49;10.80;1.00
10536;DHT22;5316;49.538;8.352;2023-03-01T14:06:19;10.80;1.00
10536;DHT22;5316;49.538;8.352;2023-03-01T14:08:48;10.90;1.00
10536;DHT22;5316;49.538;8.352;2023-03-01T14:11:49;11.00;1.00
10536;DHT22;5316;49.538;8.352;2023-03-01T14:14:32;11.00;1.00
10536;DHT22;5316;49.538;8.352;2023-03-01T14:17:16;11.20;1.00
10536;DHT22;5316;49.538;8.352;2023-03-01T14:19:48;11.30;1.00
10536;DHT22;5316;49.538;8.352;2023-03-01T14:22:28;11.50;1.00
10536;DHT22;5316;49.538;8.352;2023-03-01T14:25:22;11.60;1.00
10536;DHT22;5316;49.538;8.352;2023-03-01T14:27:57;11.80;1.00
10536;DHT22;5316;49.538;8.352;2023-03-01T14:30:26;11.90;1.00
10536;DHT22;5316;49.538;8.352;2023-03-01T14:32:58;12.00;1.00
10536;DHT22;5316;49.538;8.352;2023-03-01T14:35:28;12.10;1.00
10536;DHT22;5316;49.538;8.352;2023-03-01T14:37:56;12.10;1.00
10536;DHT22;5316;49.538;8.352;2023-03-01T14:40:25;12.20;1.00
10536;DHT22;5316;49.538;8.352;2023-03-01T14:42:56;12.40;1.00
10536;DHT22;5316;49.538;8.352;2023-03-01T14:45:25;12.40;1.00
10536;DHT22;5316;49.538;8.352;2023-03-01T14:47:53;12.50;1.00
10536;DHT22;5316;49.538;8.352;2023-03-01T14:50:26;12.60;1.00
10536;DHT22;5316;49.538;8.352;2023-03-01T14:52:56;12.70;1.00
10536;DHT22;5316;49.538;8.352;2023-03-01T14:55:27;12.90;1.00
10536;DHT22;5316;49.538;8.352;2023-03-01T14:57:57;13.10;1.00
10536;DHT22;5316;49.538;8.352;2023-03-01T15:00:27;13.10;1.00
10536;DHT22;5316;49.538;8.352;2023-03-01T15:02:56;13.00;1.00
10536;DHT22;5316;49.538;8.352;2023-03-01T15:05:27;13.00;1.00
10536;DHT22;5316;49.538;8.352;2023-03-01T15:07:56;13.00;1.00
10536;DHT22;5316;49.538;8.352;2023-03-01T15:10:26;13.30;1.00
10536;DHT22;5316;49.538;8.352;2023-03-01T15:12:54;13.40;1.00
10536;DHT22;5316;49.538;8.352;2023-03-01T15:15:40;13.50;1.00
10536;DHT22;5316;49.538;8.352;2023-03-01T15:18:18;13.60;1.00
10536;DHT22;5316;49.538;8.352;2023-03-01T15:20:48;13.80;1.00
10536;DHT22;5316;49.538;8.352;2023-03-01T15:23:23;13.60;1.00
10536;DHT22;5316;49.538;8.352;2023-03-01T15:25:51;13.50;1.00
10536;DHT22;5316;49.538;8.352;2023-03-01T15:28:24;13.70;1.00
10536;DHT22;5316;49.538;8.352;2023-03-01T15:31:00;13.80;1.00
10536;DHT22;5316;49.538;8.352;2023-03-01T15:33:40;13.80;1.00
10536;DHT22;5316;49.538;8.352;2023-03-01T15:36:33;13.80;1.00
10536;DHT22;5316;49.538;8.352;2023-03-01T15:39:22;13.90;1.00
10536;DHT22;5316;49.538;8.352;2023-03-01T15:41:52;13.80;1.00
10536;DHT22;5316;49.538;8.352;2023-03-01T15:44:26;13.70;1.00
10536;DHT22;5316;49.538;8.352;2023-03-01T15:46:55;13.60;1.00
10536;DHT22;5316;49.538;8.352;2023-03-01T15:49:33;13.50;1.00
10536;DHT22;5316;49.538;8.352;2023-03-01T15:52:03;13.60;1.00
10536;DHT22;5316;49.538;8.352;2023-03-01T15:54:30;13.50;1.00
10536;DHT22;5316;49.538;8.352;2023-03-01T15:56:58;13.50;1.00
10536;DHT22;5316;49.538;8.352;2023-03-01T15:59:25;13.70;1.00
10536;DHT22;5316;49.538;8.352;2023-03-01T16:01:54;13.70;1.00
10536;DHT22;5316;49.538;8.352;2023-03-01T16:04:21;13.70;1.00
10536;DHT22;5316;49.538;8.352;2023-03-01T16:06:49;13.60;1.00
10536;DHT22;5316;49.538;8.352;2023-03-01T16:09:20;13.50;1.00
10536;DHT22;5316;49.538;8.352;2023-03-01T16:11:48;13.40;1.00
10536;DHT22;5316;49.538;8.352;2023-03-01T16:14:15;13.40;1.00
10536;DHT22;5316;49.538;8.352;2023-03-01T16:16:43;13.20;1.00
10536;DHT22;5316;49.538;8.352;2023-03-01T16:19:12;13.10;1.00
10536;DHT22;5316;49.538;8.352;2023-03-01T16:21:40;13.00;1.00
10536;DHT22;5316;49.538;8.352;2023-03-01T16:24:09;12.60;1.00
10536;DHT22;5316;49.538;8.352;2023-03-01T16:26:37;12.30;1.00
10536;DHT22;5316;49.538;8.352;2023-03-01T16:29:13;12.10;1.00
10536;DHT22;5316;49.538;8.352;2023-03-01T16:31:41;11.60;1.00
10536;DHT22;5316;49.538;8.352;2023-03-01T16:34:09;11.20;1.00
10536;DHT22;5316;49.538;8.352;2023-03-01T16:36:37;10.90;1.00
10536;DHT22;5316;49.538;8.352;2023-03-01T16:39:05;10.50;1.00
10536;DHT22;5316;49.538;8.352;2023-03-01T16:41:34;10.20;1.00
10536;DHT22;5316;49.538;8.352;2023-03-01T16:44:01;9.90;1.00
10536;DHT22;5316;49.538;8.352;2023-03-01T16:46:29;9.70;1.00
10536;DHT22;5316;49.538;8.352;2023-03-01T16:48:56;9.40;1.00
10536;DHT22;5316;49.538;8.352;2023-03-01T16:51:24;9.20;1.00
10536;DHT22;5316;49.538;8.352;2023-03-01T16:53:52;9.00;1.00
10536;DHT22;5316;49.538;8.352;2023-03-01T16:56:19;8.90;1.00
10536;DHT22;5316;49.538;8.352;2023-03-01T16:58:46;8.80;1.00
10536;DHT22;5316;49.538;8.352;2023-03-01T17:01:15;8.70;1.00
10536;DHT22;5316;49.538;8.352;2023-03-01T17:03:43;8.60;1.00
10536;DHT22;5316;49.538;8.352;2023-03-01T17:06:13;8.50;1.00
10536;DHT22;5316;49.538;8.352;2023-03-01T17:08:41;8.40;1.00
10536;DHT22;5316;49.538;8.352;2023-03-01T17:11:10;8.40;1.00
10536;DHT22;5316;49.538;8.352;2023-03-01T17:13:39;8.30;1.00
10536;DHT22;5316;49.538;8.352;2023-03-01T17:16:08;8.20;1.00
10536;DHT22;5316;49.538;8.352;2023-03-01T17:18:35;8.10;1.00
10536;DHT22;5316;49.538;8.352;2023-03-01T17:21:03;8.10;1.00
10536;DHT22;5316;49.538;8.352;2023-03-01T17:23:31;8.00;1.00
10536;DHT22;5316;49.538;8.352;2023-03-01T17:25:58;7.90;1.00
10536;DHT22;5316;49.538;8.352;2023-03-01T17:28:29;7.90;1.00
10536;DHT22;5316;49.538;8.352;2023-03-01T17:30:58;7.80;1.00
10536;DHT22;5316;49.538;8.352;2023-03-01T17:33:25;7.70;1.00
10536;DHT22;5316;49.538;8.352;2023-03-01T17:35:52;7.70;1.00
10536;DHT22;5316;49.538;8.352;2023-03-01T17:38:19;7.70;1.00
10536;DHT22;5316;49.538;8.352;2023-03-01T17:40:45;7.60;1.00
10536;DHT22;5316;49.538;8.352;2023-03-01T17:43:13;7.60;1.00
10536;DHT22;5316;49.538;8.352;2023-03-01T17:45:42;7.50;1.00
10536;DHT22;5316;49.538;8.352;2023-03-01T17:48:14;7.50;1.00
10536;DHT22;5316;49.538;8.352;2023-03-01T17:50:41;7.40;1.00
10536;DHT22;5316;49.538;8.352;2023-03-01T17:53:08;7.40;1.00
10536;DHT22;5316;49.538;8.352;2023-03-01T17:55:36;7.30;1.00
10536;DHT22;5316;49.538;8.352;2023-03-01T17:58:03;7.20;1.00
10536;DHT22;5316;49.538;8.352;2023-03-01T18:00:31;7.20;1.00
10536;DHT22;5316;49.538;8.352;2023-03-01T18:03:00;7.10;1.00
10536;DHT22;5316;49.538;8.352;2023-03-01T18:05:31;7.10;1.00
10536;DHT22;5316;49.538;8.352;2023-03-01T18:07:58;7.00;1.00
10536;DHT22;5316;49.538;8.352;2023-03-01T18:10:24;7.00;1.00
10536;DHT22;5316;49.538;8.352;2023-03-01T18:12:51;6.90;11.00
10536;DHT22;5316;49.538;8.352;2023-03-01T18:15:18;6.80;20.70
10536;DHT22;5316;49.538;8.352;2023-03-01T18:17:45;6.80;23.40
10536;DHT22;5316;49.538;8.352;2023-03-01T18:20:13;6.70;33.50
10536;DHT22;5316;49.538;8.352;2023-03-01T18:22:41;6.70;52.00
10536;DHT22;5316;49.538;8.352;2023-03-01T18:25:08;6.60;56.30
10536;DHT22;5316;49.538;8.352;2023-03-01T18:27:35;6.60;63.60
10536;DHT22;5316;49.538;8.352;2023-03-01T18:30:03;6.50;79.90
10536;DHT22;5316;49.538;8.352;2023-03-01T18:32:30;6.50;89.50
10536;DHT22;5316;49.538;8.352;2023-03-01T18:34:56;6.50;93.70
10536;DHT22;5316;49.538;8.352;2023-03-01T18:37:25;6.40;97.40
10536;DHT22;5316;49.538;8.352;2023-03-01T18:39:52;6.40;99.90
10536;DHT22;5316;49.538;8.352;2023-03-01T18:42:19;6.40;99.90
10536;DHT22;5316;49.538;8.352;2023-03-01T18:44:46;6.30;99.90
10536;DHT22;5316;49.538;8.352;2023-03-01T18:47:14;6.20;99.90
10536;DHT22;5316;49.538;8.352;2023-03-01T18:49:40;6.20;99.90
10536;DHT22;5316;49.538;8.352;2023-03-01T18:52:08;6.20;99.90
10536;DHT22;5316;49.538;8.352;2023-03-01T18:54:36;6.10;99.90
10536;DHT22;5316;49.538;8.352;2023-03-01T18:57:03;6.10;99.90
10536;DHT22;5316;49.538;8.352;2023-03-01T18:59:30;6.00;99.90
10536;DHT22;5316;49.538;8.352;2023-03-01T19:01:57;5.90;99.90
10536;DHT22;5316;49.538;8.352;2023-03-01T19:04:23;5.90;99.90
10536;DHT22;5316;49.538;8.352;2023-03-01T19:06:51;5.90;99.90
10536;DHT22;5316;49.538;8.352;2023-03-01T19:09:19;5.80;99.90
10536;DHT22;5316;49.538;8.352;2023-03-01T19:11:49;5.80;99.90
10536;DHT22;5316;49.538;8.352;2023-03-01T19:14:19;5.80;99.90
10536;DHT22;5316;49.538;8.352;2023-03-01T19:16:46;5.70;99.90
10536;DHT22;5316;49.538;8.352;2023-03-01T19:19:14;5.70;99.90
10536;DHT22;5316;49.538;8.352;2023-03-01T19:21:41;5.70;99.90
10536;DHT22;5316;49.538;8.352;2023-03-01T19:24:10;5.60;99.90
10536;DHT22;5316;49.538;8.352;2023-03-01T19:36:32;5.40;99.90
10536;DHT22;5316;49.538;8.352;2023-03-01T19:39:00;5.40;99.90
10536;DHT22;5316;49.538;8.352;2023-03-01T19:41:30;5.30;99.90
10536;DHT22;5316;49.538;8.352;2023-03-01T20:00:44;5.20;99.90
10536;DHT22;5316;49.538;8.352;2023-03-01T20:03:22;5.10;99.90
10536;DHT22;5316;49.538;8.352;2023-03-01T20:05:51;5.00;99.90
